sensor_id;sensor_type;location;lat;lon;timestamp;temperature;humidity
23371;DHT22;11858;51.056;3.712;2023-12-20T00:01:24;6.60;99.90
23371;DHT22;11858;51.056;3.712;2023-12-20T00:03:49;6.60;99.90
23371;DHT22;11858;51.056;3.712;2023-12-20T00:06:15;6.50;99.90
23371;DHT22;11858;51.056;3.712;2023-12-20T00:08:41;6.40;99.90
23371;DHT22;11858;51.056;3.712;2023-12-20T00:11:06;6.40;99.90
23371;DHT22;11858;51.056;3.712;2023-12-20T00:13:32;6.40;99.90
23371;DHT22;11858;51.056;3.712;2023-12-20T00:15:58;6.30;99.90
23371;DHT22;11858;51.056;3.712;2023-12-20T00:18:23;6.30;99.90
23371;DHT22;11858;51.056;3.712;2023-12-20T00:20:49;6.30;99.90
23371;DHT22;11858;51.056;3.712;2023-12-20T00:23:15;6.20;99.90
23371;DHT22;11858;51.056;3.712;2023-12-20T00:25:40;6.30;99.90
23371;DHT22;11858;51.056;3.712;2023-12-20T00:28:06;6.30;99.90
23371;DHT22;11858;51.056;3.712;2023-12-20T00:30:32;6.20;99.90
23371;DHT22;11858;51.056;3.712;2023-12-20T00:32:57;6.20;99.90
23371;DHT22;11858;51.056;3.712;2023-12-20T00:35:23;6.20;99.90
23371;DHT22;11858;51.056;3.712;2023-12-20T00:37:49;6.40;99.90
23371;DHT22;11858;51.056;3.712;2023-12-20T00:40:15;6.50;99.90
23371;DHT22;11858;51.056;3.712;2023-12-20T00:42:41;6.40;99.90
23371;DHT22;11858;51.056;3.712;2023-12-20T00:45:07;6.40;99.90
23371;DHT22;11858;51.056;3.712;2023-12-20T00:47:33;6.60;99.90
23371;DHT22;11858;51.056;3.712;2023-12-20T00:49:59;6.70;99.90
23371;DHT22;11858;51.056;3.712;2023-12-20T00:52:25;6.80;99.90
23371;DHT22;11858;51.056;3.712;2023-12-20T00:54:50;6.80;99.90
23371;DHT22;11858;51.056;3.712;2023-12-20T00:57:16;6.80;99.90
23371;DHT22;11858;51.056;3.712;2023-12-20T00:59:42;6.80;99.90
23371;DHT22;11858;51.056;3.712;2023-12-20T01:02:08;6.80;99.90
23371;DHT22;11858;51.056;3.712;2023-12-20T01:04:34;6.70;99.90
23371;DHT22;11858;51.056;3.712;2023-12-20T01:07:00;6.80;99.90
23371;DHT22;11858;51.056;3.712;2023-12-20T01:09:26;6.80;99.90
23371;DHT22;11858;51.056;3.712;2023-12-20T01:11:54;6.90;99.90
23371;DHT22;11858;51.056;3.712;2023-12-20T01:14:20;6.70;99.90
23371;DHT22;11858;51.056;3.712;2023-12-20T01:16:45;6.60;99.90
23371;DHT22;11858;51.056;3.712;2023-12-20T01:19:12;6.60;99.90
23371;DHT22;11858;51.056;3.712;2023-12-20T01:21:39;6.60;99.90
23371;DHT22;11858;51.056;3.712;2023-12-20T01:24:04;6.60;99.90
23371;DHT22;11858;51.056;3.712;2023-12-20T01:26:30;6.60;99.90
23371;DHT22;11858;51.056;3.712;2023-12-20T01:28:56;6.70;99.90
23371;DHT22;11858;51.056;3.712;2023-12-20T01:31:21;6.80;99.90
23371;DHT22;11858;51.056;3.712;2023-12-20T01:33:47;6.80;99.90
23371;DHT22;11858;51.056;3.712;2023-12-20T01:36:13;6.80;99.90
23371;DHT22;11858;51.056;3.712;2023-12-20T01:38:38;6.80;99.90
23371;DHT22;11858;51.056;3.712;2023-12-20T01:41:04;6.80;99.90
23371;DHT22;11858;51.056;3.712;2023-12-20T01:43:30;6.80;99.90
23371;DHT22;11858;51.056;3.712;2023-12-20T01:45:57;6.80;99.90
23371;DHT22;11858;51.056;3.712;2023-12-20T01:48:24;6.90;99.90
23371;DHT22;11858;51.056;3.712;2023-12-20T01:50:50;7.00;99.90
23371;DHT22;11858;51.056;3.712;2023-12-20T01:53:17;7.00;99.90
23371;DHT22;11858;51.056;3.712;2023-12-20T01:55:44;7.20;99.90
23371;DHT22;11858;51.056;3.712;2023-12-20T01:58:11;7.20;99.90
23371;DHT22;11858;51.056;3.712;2023-12-20T02:00:37;7.20;99.90
23371;DHT22;11858;51.056;3.712;2023-12-20T02:03:04;7.20;99.90
23371;DHT22;11858;51.056;3.712;2023-12-20T02:05:31;6.90;99.90
23371;DHT22;11858;51.056;3.712;2023-12-20T02:07:57;7.00;99.90
23371;DHT22;11858;51.056;3.712;2023-12-20T02:10:23;6.90;99.90
23371;DHT22;11858;51.056;3.712;2023-12-20T02:12:49;7.00;99.90
23371;DHT22;11858;51.056;3.712;2023-12-20T02:15:15;7.20;99.90
23371;DHT22;11858;51.056;3.712;2023-12-20T02:17:41;7.10;99.90
23371;DHT22;11858;51.056;3.712;2023-12-20T02:20:07;7.20;99.90
23371;DHT22;11858;51.056;3.712;2023-12-20T02:22:33;7.20;99.90
23371;DHT22;11858;51.056;3.712;2023-12-20T02:24:58;7.20;99.90
23371;DHT22;11858;51.056;3.712;2023-12-20T02:27:24;7.10;99.90
23371;DHT22;11858;51.056;3.712;2023-12-20T02:29:50;7.20;99.90
23371;DHT22;11858;51.056;3.712;2023-12-20T02:32:17;7.20;99.90
23371;DHT22;11858;51.056;3.712;2023-12-20T02:34:44;7.30;99.90
23371;DHT22;11858;51.056;3.712;2023-12-20T02:37:09;7.30;99.90
23371;DHT22;11858;51.056;3.712;2023-12-20T02:39:35;7.20;99.90
23371;DHT22;11858;51.056;3.712;2023-12-20T02:42:01;7.20;99.90
23371;DHT22;11858;51.056;3.712;2023-12-20T02:44:26;7.20;99.90
23371;DHT22;11858;51.056;3.712;2023-12-20T02:46:52;7.30;99.90
23371;DHT22;11858;51.056;3.712;2023-12-20T02:49:18;7.30;99.90
23371;DHT22;11858;51.056;3.712;2023-12-20T02:51:44;7.30;99.90
23371;DHT22;11858;51.056;3.712;2023-12-20T02:54:09;7.30;99.90
23371;DHT22;11858;51.056;3.712;2023-12-20T02:56:35;7.30;99.90
23371;DHT22;11858;51.056;3.712;2023-12-20T02:59:01;7.40;99.90
23371;DHT22;11858;51.056;3.712;2023-12-20T03:01:28;7.40;99.90
23371;DHT22;11858;51.056;3.712;2023-12-20T03:03:54;7.40;99.90
23371;DHT22;11858;51.056;3.712;2023-12-20T03:06:20;7.40;99.90
23371;DHT22;11858;51.056;3.712;2023-12-20T03:08:46;7.40;99.90
23371;DHT22;11858;51.056;3.712;2023-12-20T03:11:12;7.50;99.90
23371;DHT22;11858;51.056;3.712;2023-12-20T03:13:37;7.40;99.90
23371;DHT22;11858;51.056;3.712;2023-12-20T03:16:13;7.40;99.90
23371;DHT22;11858;51.056;3.712;2023-12-20T03:18:39;7.50;99.90
23371;DHT22;11858;51.056;3.712;2023-12-20T03:21:05;7.50;99.90
23371;DHT22;11858;51.056;3.712;2023-12-20T03:23:31;7.50;99.90
23371;DHT22;11858;51.056;3.712;2023-12-20T03:26:00;7.40;99.90
23371;DHT22;11858;51.056;3.712;2023-12-20T03:28:29;7.40;99.90
23371;DHT22;11858;51.056;3.712;2023-12-20T03:30:55;7.50;99.90
23371;DHT22;11858;51.056;3.712;2023-12-20T03:33:21;7.50;99.90
23371;DHT22;11858;51.056;3.712;2023-12-20T03:35:46;7.50;99.90
23371;DHT22;11858;51.056;3.712;2023-12-20T03:38:12;7.50;99.90
23371;DHT22;11858;51.056;3.712;2023-12-20T03:40:38;7.50;99.90
23371;DHT22;11858;51.056;3.712;2023-12-20T03:43:04;7.60;99.90
23371;DHT22;11858;51.056;3.712;2023-12-20T03:45:29;7.60;99.90
23371;DHT22;11858;51.056;3.712;2023-12-20T03:47:55;7.70;99.90
23371;DHT22;11858;51.056;3.712;2023-12-20T03:50:26;7.60;99.90
23371;DHT22;11858;51.056;3.712;2023-12-20T03:52:52;7.50;99.90
23371;DHT22;11858;51.056;3.712;2023-12-20T03:55:18;7.50;99.90
23371;DHT22;11858;51.056;3.712;2023-12-20T03:57:44;7.40;99.90
23371;DHT22;11858;51.056;3.712;2023-12-20T04:00:10;7.30;99.90
23371;DHT22;11858;51.056;3.712;2023-12-20T04:02:37;7.30;99.90
23371;DHT22;11858;51.056;3.712;2023-12-20T04:05:03;7.30;99.90
23371;DHT22;11858;51.056;3.712;2023-12-20T04:07:30;7.40;99.90
23371;DHT22;11858;51.056;3.712;2023-12-20T04:09:56;7.30;99.90
23371;DHT22;11858;51.056;3.712;2023-12-20T04:12:22;7.20;99.90
23371;DHT22;11858;51.056;3.712;2023-12-20T04:14:47;7.20;99.90
23371;DHT22;11858;51.056;3.712;2023-12-20T04:17:13;7.00;99.90
23371;DHT22;11858;51.056;3.712;2023-12-20T04:19:41;7.00;99.90
23371;DHT22;11858;51.056;3.712;2023-12-20T04:22:07;7.10;99.90
23371;DHT22;11858;51.056;3.712;2023-12-20T04:24:32;7.20;99.90
23371;DHT22;11858;51.056;3.712;2023-12-20T04:26:58;7.20;99.90
23371;DHT22;11858;51.056;3.712;2023-12-20T04:29:24;7.30;99.90
23371;DHT22;11858;51.056;3.712;2023-12-20T04:31:49;7.30;99.90
23371;DHT22;11858;51.056;3.712;2023-12-20T04:34:17;7.30;99.90
23371;DHT22;11858;51.056;3.712;2023-12-20T04:36:43;7.20;99.90
23371;DHT22;11858;51.056;3.712;2023-12-20T04:39:09;7.10;99.90
23371;DHT22;11858;51.056;3.712;2023-12-20T04:41:34;7.10;99.90
23371;DHT22;11858;51.056;3.712;2023-12-20T04:44:00;7.20;99.90
23371;DHT22;11858;51.056;3.712;2023-12-20T04:46:26;7.30;99.90
23371;DHT22;11858;51.056;3.712;2023-12-20T04:48:52;7.30;99.90
23371;DHT22;11858;51.056;3.712;2023-12-20T04:51:18;7.30;99.90
23371;DHT22;11858;51.056;3.712;2023-12-20T04:53:43;7.20;99.90
23371;DHT22;11858;51.056;3.712;2023-12-20T04:56:09;7.20;99.90
23371;DHT22;11858;51.056;3.712;2023-12-20T04:58:35;7.10;99.90
23371;DHT22;11858;51.056;3.712;2023-12-20T05:01:02;7.10;99.90
23371;DHT22;11858;51.056;3.712;2023-12-20T05:03:28;7.00;99.90
23371;DHT22;11858;51.056;3.712;2023-12-20T05:05:54;6.90;99.90
23371;DHT22;11858;51.056;3.712;2023-12-20T05:08:20;6.80;99.90
23371;DHT22;11858;51.056;3.712;2023-12-20T05:10:45;6.90;99.90
23371;DHT22;11858;51.056;3.712;2023-12-20T05:13:11;6.90;99.90
23371;DHT22;11858;51.056;3.712;2023-12-20T05:15:37;6.90;99.90
23371;DHT22;11858;51.056;3.712;2023-12-20T05:18:03;6.90;99.90
23371;DHT22;11858;51.056;3.712;2023-12-20T05:20:29;6.80;99.90
23371;DHT22;11858;51.056;3.712;2023-12-20T05:22:54;6.70;99.90
23371;DHT22;11858;51.056;3.712;2023-12-20T05:25:20;6.70;99.90
23371;DHT22;11858;51.056;3.712;2023-12-20T05:27:46;6.70;99.90
23371;DHT22;11858;51.056;3.712;2023-12-20T05:30:12;6.80;99.90
23371;DHT22;11858;51.056;3.712;2023-12-20T05:32:37;6.70;99.90
23371;DHT22;11858;51.056;3.712;2023-12-20T05:35:03;6.60;99.90
23371;DHT22;11858;51.056;3.712;2023-12-20T05:37:29;6.60;99.90
23371;DHT22;11858;51.056;3.712;2023-12-20T05:39:54;6.70;99.90
23371;DHT22;11858;51.056;3.712;2023-12-20T05:42:20;6.60;99.90
23371;DHT22;11858;51.056;3.712;2023-12-20T05:44:46;6.70;99.90
23371;DHT22;11858;51.056;3.712;2023-12-20T05:47:11;6.80;99.90
23371;DHT22;11858;51.056;3.712;2023-12-20T05:49:37;6.90;99.90
23371;DHT22;11858;51.056;3.712;2023-12-20T05:52:03;6.80;99.90
23371;DHT22;11858;51.056;3.712;2023-12-20T05:54:29;6.70;99.90
23371;DHT22;11858;51.056;3.712;2023-12-20T05:56:54;6.70;99.90
23371;DHT22;11858;51.056;3.712;2023-12-20T05:59:20;6.70;99.90
23371;DHT22;11858;51.056;3.712;2023-12-20T06:01:46;6.70;99.90
23371;DHT22;11858;51.056;3.712;2023-12-20T06:04:11;6.70;99.90
23371;DHT22;11858;51.056;3.712;2023-12-20T06:06:43;6.70;99.90
23371;DHT22;11858;51.056;3.712;2023-12-20T06:09:10;6.50;99.90
23371;DHT22;11858;51.056;3.712;2023-12-20T06:11:35;6.40;99.90
23371;DHT22;11858;51.056;3.712;2023-12-20T06:14:01;6.50;99.90
23371;DHT22;11858;51.056;3.712;2023-12-20T06:16:27;6.50;99.90
23371;DHT22;11858;51.056;3.712;2023-12-20T06:18:52;6.50;99.90
23371;DHT22;11858;51.056;3.712;2023-12-20T06:21:18;6.40;99.90
23371;DHT22;11858;51.056;3.712;2023-12-20T06:23:44;6.50;99.90
23371;DHT22;11858;51.056;3.712;2023-12-20T06:26:10;6.40;99.90
23371;DHT22;11858;51.056;3.712;2023-12-20T06:28:36;6.40;99.90
23371;DHT22;11858;51.056;3.712;2023-12-20T06:31:02;6.40;99.90
23371;DHT22;11858;51.056;3.712;2023-12-20T06:33:28;6.50;99.90
23371;DHT22;11858;51.056;3.712;2023-12-20T06:35:56;6.60;99.90
23371;DHT22;11858;51.056;3.712;2023-12-20T06:38:22;6.50;99.90
23371;DHT22;11858;51.056;3.712;2023-12-20T06:40:48;6.40;99.90
23371;DHT22;11858;51.056;3.712;2023-12-20T06:43:14;6.40;99.90
23371;DHT22;11858;51.056;3.712;2023-12-20T06:45:39;6.40;99.90
23371;DHT22;11858;51.056;3.712;2023-12-20T06:48:06;6.30;99.90
23371;DHT22;11858;51.056;3.712;2023-12-20T06:50:32;6.30;99.90
23371;DHT22;11858;51.056;3.712;2023-12-20T06:52:58;6.30;99.90
23371;DHT22;11858;51.056;3.712;2023-12-20T06:55:23;6.30;99.90
23371;DHT22;11858;51.056;3.712;2023-12-20T06:57:49;6.30;99.90
23371;DHT22;11858;51.056;3.712;2023-12-20T07:00:15;6.20;99.90
23371;DHT22;11858;51.056;3.712;2023-12-20T07:02:41;6.20;99.90
23371;DHT22;11858;51.056;3.712;2023-12-20T07:05:07;6.10;99.90
23371;DHT22;11858;51.056;3.712;2023-12-20T07:07:33;6.10;99.90
23371;DHT22;11858;51.056;3.712;2023-12-20T07:09:58;6.20;99.90
23371;DHT22;11858;51.056;3.712;2023-12-20T07:12:24;6.20;99.90
23371;DHT22;11858;51.056;3.712;2023-12-20T07:14:50;6.20;99.90
23371;DHT22;11858;51.056;3.712;2023-12-20T07:17:15;6.30;99.90
23371;DHT22;11858;51.056;3.712;2023-12-20T07:19:41;6.30;99.90
23371;DHT22;11858;51.056;3.712;2023-12-20T07:22:08;6.30;99.90
23371;DHT22;11858;51.056;3.712;2023-12-20T07:24:34;6.30;99.90
23371;DHT22;11858;51.056;3.712;2023-12-20T07:27:00;6.20;99.90
23371;DHT22;11858;51.056;3.712;2023-12-20T07:29:26;6.20;99.90
23371;DHT22;11858;51.056;3.712;2023-12-20T07:31:55;6.20;99.90
23371;DHT22;11858;51.056;3.712;2023-12-20T07:34:21;6.20;99.90
23371;DHT22;11858;51.056;3.712;2023-12-20T07:36:46;6.20;99.90
23371;DHT22;11858;51.056;3.712;2023-12-20T07:39:14;6.20;99.90
23371;DHT22;11858;51.056;3.712;2023-12-20T07:41:40;6.10;99.90
23371;DHT22;11858;51.056;3.712;2023-12-20T07:44:06;6.10;99.90
23371;DHT22;11858;51.056;3.712;2023-12-20T07:46:33;6.20;99.90
23371;DHT22;11858;51.056;3.712;2023-12-20T07:48:58;6.10;99.90
23371;DHT22;11858;51.056;3.712;2023-12-20T07:51:24;6.20;99.90
23371;DHT22;11858;51.056;3.712;2023-12-20T07:53:51;6.30;99.90
23371;DHT22;11858;51.056;3.712;2023-12-20T07:56:18;6.30;99.90
23371;DHT22;11858;51.056;3.712;2023-12-20T07:58:44;6.20;99.90
23371;DHT22;11858;51.056;3.712;2023-12-20T08:01:11;6.30;99.90
23371;DHT22;11858;51.056;3.712;2023-12-20T08:03:37;6.20;99.90
23371;DHT22;11858;51.056;3.712;2023-12-20T08:06:03;6.30;99.90
23371;DHT22;11858;51.056;3.712;2023-12-20T08:08:29;6.30;99.90
23371;DHT22;11858;51.056;3.712;2023-12-20T08:10:55;6.40;99.90
23371;DHT22;11858;51.056;3.712;2023-12-20T08:13:23;6.40;99.90
23371;DHT22;11858;51.056;3.712;2023-12-20T08:15:51;6.30;99.90
23371;DHT22;11858;51.056;3.712;2023-12-20T08:18:17;6.20;99.90
23371;DHT22;11858;51.056;3.712;2023-12-20T08:20:43;6.30;99.90
23371;DHT22;11858;51.056;3.712;2023-12-20T08:23:09;6.40;99.90
23371;DHT22;11858;51.056;3.712;2023-12-20T08:25:34;6.30;99.90
23371;DHT22;11858;51.056;3.712;2023-12-20T08:28:02;6.40;99.90
23371;DHT22;11858;51.056;3.712;2023-12-20T08:30:28;6.40;99.90
23371;DHT22;11858;51.056;3.712;2023-12-20T08:32:55;6.30;99.90
23371;DHT22;11858;51.056;3.712;2023-12-20T08:35:20;6.40;99.90
23371;DHT22;11858;51.056;3.712;2023-12-20T08:37:46;6.50;99.90
23371;DHT22;11858;51.056;3.712;2023-12-20T08:40:12;6.50;99.90
23371;DHT22;11858;51.056;3.712;2023-12-20T08:42:38;6.50;99.90
23371;DHT22;11858;51.056;3.712;2023-12-20T08:45:03;6.60;99.90
23371;DHT22;11858;51.056;3.712;2023-12-20T08:47:30;6.60;99.90
23371;DHT22;11858;51.056;3.712;2023-12-20T08:49:55;6.60;99.90
23371;DHT22;11858;51.056;3.712;2023-12-20T08:52:23;6.60;99.90
23371;DHT22;11858;51.056;3.712;2023-12-20T08:54:50;6.60;99.90
23371;DHT22;11858;51.056;3.712;2023-12-20T08:57:21;6.70;99.90
23371;DHT22;11858;51.056;3.712;2023-12-20T08:59:48;6.90;99.90
23371;DHT22;11858;51.056;3.712;2023-12-20T09:02:14;6.90;99.90
23371;DHT22;11858;51.056;3.712;2023-12-20T09:04:39;6.90;99.90
23371;DHT22;11858;51.056;3.712;2023-12-20T09:07:05;7.00;99.90
23371;DHT22;11858;51.056;3.712;2023-12-20T09:09:31;7.00;99.90
23371;DHT22;11858;51.056;3.712;2023-12-20T09:11:57;7.20;99.90
23371;DHT22;11858;51.056;3.712;2023-12-20T09:14:23;7.30;99.90
23371;DHT22;11858;51.056;3.712;2023-12-20T09:16:49;7.40;99.90
23371;DHT22;11858;51.056;3.712;2023-12-20T09:19:17;7.50;99.90
23371;DHT22;11858;51.056;3.712;2023-12-20T09:21:43;7.50;99.90
23371;DHT22;11858;51.056;3.712;2023-12-20T09:24:08;7.40;99.90
23371;DHT22;11858;51.056;3.712;2023-12-20T09:26:34;7.40;99.90
23371;DHT22;11858;51.056;3.712;2023-12-20T09:29:00;7.40;99.90
23371;DHT22;11858;51.056;3.712;2023-12-20T09:31:25;7.40;99.90
23371;DHT22;11858;51.056;3.712;2023-12-20T09:33:51;7.30;99.90
23371;DHT22;11858;51.056;3.712;2023-12-20T09:36:17;7.30;99.90
23371;DHT22;11858;51.056;3.712;2023-12-20T09:38:42;7.40;99.90
23371;DHT22;11858;51.056;3.712;2023-12-20T09:41:08;7.60;99.90
23371;DHT22;11858;51.056;3.712;2023-12-20T09:43:37;7.70;99.90
23371;DHT22;11858;51.056;3.712;2023-12-20T09:46:05;7.90;99.90
23371;DHT22;11858;51.056;3.712;2023-12-20T09:48:33;8.10;99.90
23371;DHT22;11858;51.056;3.712;2023-12-20T09:50:59;8.20;99.90
23371;DHT22;11858;51.056;3.712;2023-12-20T09:53:25;8.30;99.90
23371;DHT22;11858;51.056;3.712;2023-12-20T09:56:01;8.30;99.90
23371;DHT22;11858;51.056;3.712;2023-12-20T09:58:27;8.30;99.90
23371;DHT22;11858;51.056;3.712;2023-12-20T10:00:54;8.30;99.90
23371;DHT22;11858;51.056;3.712;2023-12-20T10:03:25;8.40;99.90
23371;DHT22;11858;51.056;3.712;2023-12-20T10:05:54;8.30;99.90
23371;DHT22;11858;51.056;3.712;2023-12-20T10:08:22;8.30;99.90
23371;DHT22;11858;51.056;3.712;2023-12-20T10:10:48;8.30;99.90
23371;DHT22;11858;51.056;3.712;2023-12-20T10:13:15;8.30;99.90
23371;DHT22;11858;51.056;3.712;2023-12-20T10:15:41;8.30;99.90
23371;DHT22;11858;51.056;3.712;2023-12-20T10:18:07;8.40;99.90
23371;DHT22;11858;51.056;3.712;2023-12-20T10:20:33;8.40;99.90
23371;DHT22;11858;51.056;3.712;2023-12-20T10:22:59;8.30;99.90
23371;DHT22;11858;51.056;3.712;2023-12-20T10:25:26;8.30;99.90
23371;DHT22;11858;51.056;3.712;2023-12-20T10:28:09;8.30;99.90
23371;DHT22;11858;51.056;3.712;2023-12-20T10:30:36;8.40;99.90
23371;DHT22;11858;51.056;3.712;2023-12-20T10:33:01;8.50;99.90
23371;DHT22;11858;51.056;3.712;2023-12-20T10:35:27;8.60;99.90
23371;DHT22;11858;51.056;3.712;2023-12-20T10:37:56;8.60;99.90
23371;DHT22;11858;51.056;3.712;2023-12-20T10:40:22;8.60;99.90
23371;DHT22;11858;51.056;3.712;2023-12-20T10:42:49;8.60;99.90
23371;DHT22;11858;51.056;3.712;2023-12-20T10:45:15;8.50;99.90
23371;DHT22;11858;51.056;3.712;2023-12-20T10:47:44;8.60;99.90
23371;DHT22;11858;51.056;3.712;2023-12-20T10:50:11;8.60;99.90
23371;DHT22;11858;51.056;3.712;2023-12-20T10:52:38;8.70;99.90
23371;DHT22;11858;51.056;3.712;2023-12-20T10:55:04;8.80;99.90
23371;DHT22;11858;51.056;3.712;2023-12-20T10:57:30;8.90;99.90
23371;DHT22;11858;51.056;3.712;2023-12-20T11:00:00;8.90;99.90
23371;DHT22;11858;51.056;3.712;2023-12-20T11:02:28;8.80;99.90
23371;DHT22;11858;51.056;3.712;2023-12-20T11:08:02;9.10;99.90
23371;DHT22;11858;51.056;3.712;2023-12-20T11:13:28;9.20;99.90
23371;DHT22;11858;51.056;3.712;2023-12-20T11:15:56;9.30;99.90
23371;DHT22;11858;51.056;3.712;2023-12-20T11:18:31;9.30;99.90
23371;DHT22;11858;51.056;3.712;2023-12-20T11:21:01;9.30;99.90
23371;DHT22;11858;51.056;3.712;2023-12-20T11:23:30;9.30;99.90
23371;DHT22;11858;51.056;3.712;2023-12-20T11:25:56;9.40;99.90
23371;DHT22;11858;51.056;3.712;2023-12-20T11:28:26;9.40;99.90
23371;DHT22;11858;51.056;3.712;2023-12-20T11:30:53;9.40;99.90
23371;DHT22;11858;51.056;3.712;2023-12-20T11:33:24;9.40;99.90
23371;DHT22;11858;51.056;3.712;2023-12-20T11:35:50;9.40;99.90
23371;DHT22;11858;51.056;3.712;2023-12-20T11:38:16;9.30;99.90
23371;DHT22;11858;51.056;3.712;2023-12-20T11:40:42;9.40;99.90
23371;DHT22;11858;51.056;3.712;2023-12-20T11:43:09;9.40;99.90
23371;DHT22;11858;51.056;3.712;2023-12-20T11:45:35;9.60;99.90
23371;DHT22;11858;51.056;3.712;2023-12-20T11:48:04;9.50;99.90
23371;DHT22;11858;51.056;3.712;2023-12-20T11:50:31;9.40;99.90
23371;DHT22;11858;51.056;3.712;2023-12-20T11:52:57;9.40;99.90
23371;DHT22;11858;51.056;3.712;2023-12-20T11:55:23;9.30;99.90
23371;DHT22;11858;51.056;3.712;2023-12-20T11:57:52;9.40;99.90
23371;DHT22;11858;51.056;3.712;2023-12-20T12:00:18;9.40;99.90
23371;DHT22;11858;51.056;3.712;2023-12-20T12:02:55;9.40;99.90
23371;DHT22;11858;51.056;3.712;2023-12-20T12:05:22;9.50;99.90
23371;DHT22;11858;51.056;3.712;2023-12-20T12:07:47;9.50;99.90
23371;DHT22;11858;51.056;3.712;2023-12-20T12:10:14;9.60;99.90
23371;DHT22;11858;51.056;3.712;2023-12-20T12:12:39;9.60;99.90
23371;DHT22;11858;51.056;3.712;2023-12-20T12:15:06;9.50;99.90
23371;DHT22;11858;51.056;3.712;2023-12-20T12:17:32;9.50;99.90
23371;DHT22;11858;51.056;3.712;2023-12-20T12:20:04;9.40;99.90
23371;DHT22;11858;51.056;3.712;2023-12-20T12:22:30;9.50;99.90
23371;DHT22;11858;51.056;3.712;2023-12-20T12:24:59;9.50;99.90
23371;DHT22;11858;51.056;3.712;2023-12-20T12:27:25;9.50;99.90
23371;DHT22;11858;51.056;3.712;2023-12-20T12:30:02;9.50;99.90
23371;DHT22;11858;51.056;3.712;2023-12-20T12:32:32;9.70;99.90
23371;DHT22;11858;51.056;3.712;2023-12-20T12:34:58;9.80;99.90
23371;DHT22;11858;51.056;3.712;2023-12-20T12:37:24;9.90;99.90
23371;DHT22;11858;51.056;3.712;2023-12-20T12:39:50;9.90;99.90
23371;DHT22;11858;51.056;3.712;2023-12-20T12:42:15;10.20;99.90
23371;DHT22;11858;51.056;3.712;2023-12-20T12:44:41;10.30;99.90
23371;DHT22;11858;51.056;3.712;2023-12-20T12:47:07;10.40;99.90
23371;DHT22;11858;51.056;3.712;2023-12-20T12:49:33;10.40;99.90
23371;DHT22;11858;51.056;3.712;2023-12-20T12:51:59;10.60;99.90
23371;DHT22;11858;51.056;3.712;2023-12-20T12:54:26;10.70;99.90
23371;DHT22;11858;51.056;3.712;2023-12-20T12:56:52;10.80;99.90
23371;DHT22;11858;51.056;3.712;2023-12-20T12:59:18;10.80;99.90
23371;DHT22;11858;51.056;3.712;2023-12-20T13:01:44;10.90;99.90
23371;DHT22;11858;51.056;3.712;2023-12-20T13:04:10;11.30;99.90
23371;DHT22;11858;51.056;3.712;2023-12-20T13:06:39;11.50;99.90
23371;DHT22;11858;51.056;3.712;2023-12-20T13:09:06;11.50;99.90
23371;DHT22;11858;51.056;3.712;2023-12-20T13:11:32;11.20;99.90
23371;DHT22;11858;51.056;3.712;2023-12-20T13:13:58;11.20;99.90
23371;DHT22;11858;51.056;3.712;2023-12-20T13:16:24;11.20;99.90
23371;DHT22;11858;51.056;3.712;2023-12-20T13:18:50;11.10;99.90
23371;DHT22;11858;51.056;3.712;2023-12-20T13:21:16;11.10;99.90
23371;DHT22;11858;51.056;3.712;2023-12-20T13:23:42;11.00;99.90
23371;DHT22;11858;51.056;3.712;2023-12-20T13:26:08;11.00;99.90
23371;DHT22;11858;51.056;3.712;2023-12-20T13:28:33;10.80;99.90
23371;DHT22;11858;51.056;3.712;2023-12-20T13:30:59;10.60;99.90
23371;DHT22;11858;51.056;3.712;2023-12-20T13:33:25;10.60;99.90
23371;DHT22;11858;51.056;3.712;2023-12-20T13:35:51;10.50;99.90
23371;DHT22;11858;51.056;3.712;2023-12-20T13:38:17;10.60;99.90
23371;DHT22;11858;51.056;3.712;2023-12-20T13:40:43;10.60;99.90
23371;DHT22;11858;51.056;3.712;2023-12-20T13:43:08;10.50;99.90
23371;DHT22;11858;51.056;3.712;2023-12-20T13:45:36;10.40;99.90
23371;DHT22;11858;51.056;3.712;2023-12-20T13:48:02;10.30;99.90
23371;DHT22;11858;51.056;3.712;2023-12-20T13:50:28;10.40;99.90
23371;DHT22;11858;51.056;3.712;2023-12-20T13:52:54;10.40;99.90
23371;DHT22;11858;51.056;3.712;2023-12-20T13:55:20;10.50;99.90
23371;DHT22;11858;51.056;3.712;2023-12-20T13:57:50;10.50;99.90
23371;DHT22;11858;51.056;3.712;2023-12-20T14:00:16;10.50;99.90
23371;DHT22;11858;51.056;3.712;2023-12-20T14:02:42;10.40;99.90
23371;DHT22;11858;51.056;3.712;2023-12-20T14:05:09;10.40;99.90
23371;DHT22;11858;51.056;3.712;2023-12-20T14:07:35;10.30;99.90
23371;DHT22;11858;51.056;3.712;2023-12-20T14:10:01;10.20;99.90
23371;DHT22;11858;51.056;3.712;2023-12-20T14:12:26;10.20;99.90
23371;DHT22;11858;51.056;3.712;2023-12-20T14:14:52;10.20;99.90
23371;DHT22;11858;51.056;3.712;2023-12-20T14:17:18;10.20;99.90
23371;DHT22;11858;51.056;3.712;2023-12-20T14:19:43;10.20;99.90
23371;DHT22;11858;51.056;3.712;2023-12-20T14:22:09;10.10;99.90
23371;DHT22;11858;51.056;3.712;2023-12-20T14:24:38;10.20;99.90
23371;DHT22;11858;51.056;3.712;2023-12-20T14:27:03;10.10;99.90
23371;DHT22;11858;51.056;3.712;2023-12-20T14:29:29;10.10;99.90
23371;DHT22;11858;51.056;3.712;2023-12-20T14:31:55;10.30;99.90
23371;DHT22;11858;51.056;3.712;2023-12-20T14:34:20;10.40;99.90
23371;DHT22;11858;51.056;3.712;2023-12-20T14:36:46;10.40;99.90
23371;DHT22;11858;51.056;3.712;2023-12-20T14:39:12;10.50;99.90
23371;DHT22;11858;51.056;3.712;2023-12-20T14:41:39;10.40;99.90
23371;DHT22;11858;51.056;3.712;2023-12-20T14:44:07;10.30;99.90
23371;DHT22;11858;51.056;3.712;2023-12-20T14:46:33;10.20;99.90
23371;DHT22;11858;51.056;3.712;2023-12-20T14:48:58;10.30;99.90
23371;DHT22;11858;51.056;3.712;2023-12-20T14:51:26;10.40;99.90
23371;DHT22;11858;51.056;3.712;2023-12-20T14:53:52;10.30;99.90
23371;DHT22;11858;51.056;3.712;2023-12-20T14:56:17;10.30;99.90
23371;DHT22;11858;51.056;3.712;2023-12-20T14:58:43;10.30;99.90
23371;DHT22;11858;51.056;3.712;2023-12-20T15:01:09;10.40;99.90
23371;DHT22;11858;51.056;3.712;2023-12-20T15:03:35;10.30;99.90
23371;DHT22;11858;51.056;3.712;2023-12-20T15:06:00;10.30;99.90
23371;DHT22;11858;51.056;3.712;2023-12-20T15:08:26;10.20;99.90
23371;DHT22;11858;51.056;3.712;2023-12-20T15:10:52;10.10;99.90
23371;DHT22;11858;51.056;3.712;2023-12-20T15:13:18;10.20;99.90
23371;DHT22;11858;51.056;3.712;2023-12-20T15:15:43;10.20;99.90
23371;DHT22;11858;51.056;3.712;2023-12-20T15:18:09;10.10;99.90
23371;DHT22;11858;51.056;3.712;2023-12-20T15:20:35;10.10;99.90
23371;DHT22;11858;51.056;3.712;2023-12-20T15:23:02;10.20;99.90
23371;DHT22;11858;51.056;3.712;2023-12-20T15:25:33;10.20;99.90
23371;DHT22;11858;51.056;3.712;2023-12-20T15:27:58;10.10;99.90
23371;DHT22;11858;51.056;3.712;2023-12-20T15:30:24;10.10;99.90
23371;DHT22;11858;51.056;3.712;2023-12-20T15:32:53;10.10;99.90
23371;DHT22;11858;51.056;3.712;2023-12-20T15:35:18;10.00;99.90
23371;DHT22;11858;51.056;3.712;2023-12-20T15:37:44;10.00;99.90
23371;DHT22;11858;51.056;3.712;2023-12-20T15:40:10;10.00;99.90
23371;DHT22;11858;51.056;3.712;2023-12-20T15:42:38;10.10;99.90